Time;durP1;ratioP1;P1;durP2;ratioP2;P2;SDS_P1;SDS_P2;PMS_P1;PMS_P2;Temp;Humidity;BMP_temperature;BMP_pressure;BME280_temperature;BME280_humidity;BME280_pressure;Samples;Min_cycle;Max_cycle;Signal;HPM_P1;HPM_P2
2023/08/19 00:01:18;;;;;;;25.92;16.63;;;22.00;99.90;;;;;;5091468;28;20738;-86
2023/08/19 00:03:45;;;;;;;22.30;15.20;;;21.90;99.90;;;;;;5093673;28;20313;-86
2023/08/19 00:06:33;;;;;;;21.20;14.57;;;21.90;99.90;;;;;;5095241;28;20290;-85
2023/08/19 00:09:03;;;;;;;23.00;15.40;;;21.90;99.90;;;;;;5109985;28;20210;-85
2023/08/19 00:11:31;;;;;;;21.02;14.70;;;21.90;99.90;;;;;;5093873;28;20653;-87
2023/08/19 00:13:59;;;;;;;28.33;17.67;;;21.80;99.90;;;;;;5109886;28;20662;-85
2023/08/19 00:16:26;;;;;;;23.40;15.00;;;21.80;99.90;;;;;;5109849;28;20715;-86
2023/08/19 00:18:53;;;;;;;21.77;15.23;;;21.80;99.90;;;;;;5092715;28;20558;-87
2023/08/19 00:21:20;;;;;;;22.70;15.32;;;21.80;99.90;;;;;;5113552;28;20209;-86
2023/08/19 00:23:46;;;;;;;22.73;15.65;;;21.70;99.90;;;;;;5112700;28;20211;-85
2023/08/19 00:26:13;;;;;;;21.88;15.35;;;21.70;99.90;;;;;;5112691;28;20204;-84
2023/08/19 00:28:40;;;;;;;19.00;13.90;;;21.70;99.90;;;;;;5094971;28;20578;-86
2023/08/19 00:31:08;;;;;;;20.92;14.32;;;21.70;99.90;;;;;;5114350;28;20227;-84
2023/08/19 00:33:35;;;;;;;21.85;15.38;;;21.70;99.90;;;;;;5094822;28;20204;-83
2023/08/19 00:36:03;;;;;;;21.30;15.63;;;21.70;99.90;;;;;;5094389;28;20211;-85
2023/08/19 00:38:30;;;;;;;23.02;15.15;;;21.60;99.90;;;;;;5093338;28;20264;-85
2023/08/19 00:40:56;;;;;;;21.15;14.98;;;21.70;99.90;;;;;;5116338;28;20202;-85
2023/08/19 00:43:23;;;;;;;20.40;14.00;;;21.60;99.90;;;;;;5073890;28;20571;-85
2023/08/19 00:45:51;;;;;;;21.17;14.35;;;21.60;99.90;;;;;;5117663;28;20226;-86
2023/08/19 00:48:20;;;;;;;20.27;13.70;;;21.50;99.90;;;;;;5109784;28;20207;-84
2023/08/19 00:50:47;;;;;;;22.63;14.68;;;21.50;99.90;;;;;;5110555;28;20239;-84
2023/08/19 00:53:15;;;;;;;20.83;14.15;;;21.60;99.90;;;;;;5111288;28;20244;-86
2023/08/19 00:55:42;;;;;;;21.83;14.52;;;21.50;99.90;;;;;;5096346;28;20207;-86
2023/08/19 00:58:09;;;;;;;21.50;14.43;;;21.40;99.90;;;;;;5113642;28;20199;-85
2023/08/19 01:00:36;;;;;;;22.33;14.82;;;21.60;99.90;;;;;;5113691;28;20365;-84
2023/08/19 01:03:07;;;;;;;21.65;14.75;;;21.60;99.90;;;;;;5095812;28;20207;-85
2023/08/19 01:06:01;;;;;;;19.63;14.18;;;21.60;99.90;;;;;;5113264;28;20313;-86
2023/08/19 01:08:48;;;;;;;21.40;14.40;;;21.70;99.90;;;;;;5076405;28;20286;-85
2023/08/19 01:11:42;;;;;;;19.73;14.80;;;21.70;99.90;;;;;;5082875;28;20207;-84
2023/08/19 01:14:34;;;;;;;21.98;14.98;;;21.70;99.90;;;;;;5094310;28;20207;-85
2023/08/19 01:17:05;;;;;;;20.65;14.45;;;21.70;99.90;;;;;;5094945;28;20226;-85
2023/08/19 01:19:33;;;;;;;18.90;14.07;;;21.70;99.90;;;;;;5095111;28;20203;-85
2023/08/19 01:22:05;;;;;;;21.33;14.38;;;21.70;99.90;;;;;;5113230;28;20260;-85
2023/08/19 01:24:39;;;;;;;20.92;15.38;;;21.70;99.90;;;;;;5094482;28;20254;-86
2023/08/19 01:27:22;;;;;;;23.63;15.73;;;21.70;99.90;;;;;;5094502;28;20675;-85
2023/08/19 01:29:49;;;;;;;23.90;15.88;;;21.70;99.90;;;;;;5113209;28;20222;-85
2023/08/19 01:32:17;;;;;;;22.52;14.65;;;21.80;99.90;;;;;;5112876;28;20242;-84
2023/08/19 01:34:45;;;;;;;20.73;13.60;;;21.70;99.90;;;;;;5099336;28;20199;-83
2023/08/19 01:37:17;;;;;;;21.60;13.73;;;21.60;99.90;;;;;;5096969;28;20491;-85
2023/08/19 01:39:46;;;;;;;17.73;13.40;;;21.70;99.90;;;;;;5098602;28;20212;-87
2023/08/19 01:42:15;;;;;;;20.55;14.27;;;21.70;99.90;;;;;;5112316;28;20199;-86
2023/08/19 01:44:42;;;;;;;23.25;14.85;;;21.60;99.90;;;;;;5094477;28;20940;-87
2023/08/19 01:47:18;;;;;;;19.83;14.15;;;21.60;99.90;;;;;;5094633;28;20277;-85
2023/08/19 01:49:46;;;;;;;19.08;13.93;;;21.60;99.90;;;;;;5093963;28;20230;-86
2023/08/19 01:52:14;;;;;;;21.08;13.75;;;21.60;99.90;;;;;;5094707;28;20203;-84
2023/08/19 01:54:41;;;;;;;21.60;14.02;;;21.60;99.90;;;;;;5093561;28;20612;-86
2023/08/19 01:57:08;;;;;;;21.65;14.20;;;21.60;99.90;;;;;;5113033;28;20222;-88
2023/08/19 01:59:35;;;;;;;20.45;14.73;;;21.60;99.90;;;;;;5112723;28;20290;-87
2023/08/19 02:02:02;;;;;;;18.00;12.90;;;21.60;99.90;;;;;;5114880;28;20226;-85
2023/08/19 02:04:29;;;;;;;23.45;14.82;;;21.60;99.90;;;;;;5096752;28;20651;-85
2023/08/19 02:06:57;;;;;;;21.02;14.27;;;21.60;99.90;;;;;;5095269;28;20209;-86
2023/08/19 02:09:24;;;;;;;19.70;13.95;;;21.50;99.90;;;;;;5105609;28;20195;-87
2023/08/19 02:11:51;;;;;;;22.92;14.23;;;21.60;99.90;;;;;;5121803;28;20297;-85
2023/08/19 02:14:18;;;;;;;21.08;14.23;;;21.50;99.90;;;;;;5123744;28;20211;-86
2023/08/19 02:16:44;;;;;;;21.38;14.15;;;21.60;99.90;;;;;;5123687;28;20627;-86
2023/08/19 02:19:11;;;;;;;22.17;14.70;;;21.60;99.90;;;;;;5097178;28;20230;-85
2023/08/19 02:21:38;;;;;;;20.45;13.23;;;21.50;99.90;;;;;;5090150;28;20226;-85
2023/08/19 02:24:05;;;;;;;20.55;14.10;;;21.50;99.90;;;;;;5081264;28;20209;-86
2023/08/19 02:26:32;;;;;;;20.42;14.27;;;21.40;99.90;;;;;;5112607;28;20272;-86
2023/08/19 02:28:59;;;;;;;21.45;14.77;;;21.40;99.90;;;;;;5111868;28;20792;-87
2023/08/19 02:31:26;;;;;;;22.13;13.98;;;21.40;99.90;;;;;;5112284;28;20219;-86
2023/08/19 02:33:53;;;;;;;21.30;14.50;;;21.40;99.90;;;;;;5093920;28;20199;-86
2023/08/19 02:36:20;;;;;;;21.73;13.70;;;21.30;99.90;;;;;;5111368;28;20223;-86
2023/08/19 02:38:47;;;;;;;21.85;14.55;;;21.30;99.90;;;;;;5111907;28;20207;-86
2023/08/19 02:41:14;;;;;;;23.13;15.77;;;21.30;99.90;;;;;;5111734;28;20202;-85
2023/08/19 02:43:41;;;;;;;23.45;15.95;;;21.20;99.90;;;;;;5111979;28;20650;-85
2023/08/19 02:46:08;;;;;;;27.13;16.90;;;21.30;99.90;;;;;;5111725;28;20586;-85
2023/08/19 02:48:34;;;;;;;31.17;18.77;;;21.20;99.90;;;;;;5081617;28;20313;-85
2023/08/19 02:51:01;;;;;;;25.75;17.20;;;21.30;99.90;;;;;;5093350;28;20734;-85
2023/08/19 02:53:28;;;;;;;29.48;19.92;;;21.30;99.90;;;;;;5111763;28;20210;-86
2023/08/19 02:55:55;;;;;;;28.63;18.08;;;21.30;99.90;;;;;;5093498;28;20207;-86
2023/08/19 02:58:22;;;;;;;26.33;18.27;;;21.40;99.90;;;;;;5111252;28;20206;-86
2023/08/19 03:00:49;;;;;;;26.20;17.23;;;21.30;99.90;;;;;;5092623;28;20307;-85
2023/08/19 03:03:17;;;;;;;26.60;17.55;;;21.40;99.90;;;;;;5111461;28;20757;-85
2023/08/19 03:05:44;;;;;;;28.80;18.40;;;21.40;99.90;;;;;;5092591;28;20251;-85
2023/08/19 03:08:11;;;;;;;26.92;18.45;;;21.30;99.90;;;;;;5111046;28;20207;-86
2023/08/19 03:10:39;;;;;;;29.73;19.17;;;21.40;99.90;;;;;;5111521;28;20217;-85
2023/08/19 03:13:07;;;;;;;29.15;18.58;;;21.40;99.90;;;;;;5113746;28;20207;-84
2023/08/19 03:15:37;;;;;;;33.55;21.52;;;21.40;99.90;;;;;;5111909;28;20223;-85
2023/08/19 03:18:04;;;;;;;31.08;19.90;;;21.40;99.90;;;;;;5111608;28;20219;-84
2023/08/19 03:20:33;;;;;;;30.40;19.33;;;21.50;99.90;;;;;;5092840;28;20291;-84
2023/08/19 03:23:00;;;;;;;24.45;17.80;;;21.60;99.90;;;;;;5111345;28;20714;-86
2023/08/19 03:25:26;;;;;;;28.30;19.33;;;21.50;99.90;;;;;;5092590;28;20331;-86
2023/08/19 03:27:53;;;;;;;27.92;19.17;;;21.60;99.90;;;;;;5117397;28;20195;-83
2023/08/19 03:30:20;;;;;;;26.38;17.40;;;21.50;99.90;;;;;;5098888;28;20268;-84
2023/08/19 03:32:47;;;;;;;27.33;18.65;;;21.60;99.90;;;;;;5092922;28;20652;-84
2023/08/19 03:35:14;;;;;;;27.52;18.10;;;21.60;99.90;;;;;;5110631;28;20282;-86
2023/08/19 03:37:41;;;;;;;26.85;18.23;;;21.60;99.90;;;;;;5110447;28;20648;-85
2023/08/19 03:40:08;;;;;;;25.52;17.52;;;21.60;99.90;;;;;;5092217;28;20207;-87
2023/08/19 03:42:37;;;;;;;27.83;18.55;;;21.70;99.90;;;;;;5095378;28;20671;-86
2023/08/19 03:45:04;;;;;;;29.90;19.58;;;21.70;99.90;;;;;;5092405;28;20223;-85
2023/08/19 03:47:31;;;;;;;28.88;18.75;;;21.80;99.90;;;;;;5111218;28;20667;-85
2023/08/19 03:49:58;;;;;;;31.55;19.48;;;21.80;99.90;;;;;;5108714;28;20230;-85
2023/08/19 03:52:25;;;;;;;31.80;20.35;;;21.80;99.90;;;;;;5111780;28;20571;-86
2023/08/19 03:54:52;;;;;;;29.77;20.58;;;21.90;99.90;;;;;;5111093;28;20217;-86
2023/08/19 03:57:19;;;;;;;31.15;20.33;;;21.90;99.90;;;;;;5094224;28;20195;-85
2023/08/19 03:59:50;;;;;;;28.50;19.63;;;22.00;99.90;;;;;;5093608;28;20322;-86
2023/08/19 04:02:18;;;;;;;29.10;18.42;;;21.90;99.90;;;;;;5092843;28;20223;-86
2023/08/19 04:04:59;;;;;;;31.98;20.17;;;21.90;99.90;;;;;;5110506;28;20635;-85
2023/08/19 04:07:26;;;;;;;33.30;19.15;;;22.00;99.90;;;;;;5109669;28;20297;-86
2023/08/19 04:09:55;;;;;;;29.33;18.70;;;22.00;99.90;;;;;;5110466;28;20241;-86
2023/08/19 04:12:25;;;;;;;28.15;19.38;;;22.00;99.90;;;;;;5110043;28;20217;-87
2023/08/19 04:14:52;;;;;;;29.10;18.30;;;22.00;99.90;;;;;;5092263;28;20199;-86
2023/08/19 04:17:19;;;;;;;29.35;19.02;;;21.90;99.90;;;;;;5110222;28;20215;-85
2023/08/19 04:19:46;;;;;;;29.63;19.30;;;22.00;99.90;;;;;;5110672;28;20294;-86
2023/08/19 04:22:16;;;;;;;31.95;19.92;;;22.00;99.90;;;;;;5093123;28;20249;-85
2023/08/19 04:24:48;;;;;;;28.48;18.67;;;22.10;99.90;;;;;;5093725;28;20207;-87
2023/08/19 04:27:15;;;;;;;29.65;19.20;;;22.00;99.90;;;;;;5110055;28;20204;-86
2023/08/19 04:29:42;;;;;;;29.23;20.45;;;22.10;99.90;;;;;;5095240;28;20199;-86
2023/08/19 04:32:09;;;;;;;30.02;19.52;;;22.10;99.90;;;;;;5096078;28;20456;-84
2023/08/19 04:34:35;;;;;;;32.40;19.40;;;22.10;99.90;;;;;;5114395;28;20209;-85
2023/08/19 04:37:03;;;;;;;28.85;19.00;;;22.10;99.90;;;;;;5095808;28;20206;-85
2023/08/19 04:39:30;;;;;;;30.38;19.63;;;22.10;99.90;;;;;;5090475;28;20200;-87
2023/08/19 04:41:56;;;;;;;31.85;21.08;;;22.20;99.90;;;;;;5113450;28;20214;-86
2023/08/19 04:44:26;;;;;;;30.60;19.75;;;22.20;99.90;;;;;;5113862;28;20233;-86
2023/08/19 04:46:53;;;;;;;26.30;17.90;;;22.20;99.90;;;;;;5095632;28;20234;-85
2023/08/19 04:49:20;;;;;;;28.02;18.88;;;22.20;99.90;;;;;;5093689;28;20223;-86
2023/08/19 04:51:47;;;;;;;25.55;18.40;;;22.20;99.90;;;;;;5070061;28;20281;-85
2023/08/19 04:54:14;;;;;;;28.83;18.25;;;22.20;99.90;;;;;;5098355;28;20215;-88
2023/08/19 04:56:43;;;;;;;30.67;18.55;;;22.20;99.90;;;;;;5075079;28;20204;-85
2023/08/19 04:59:10;;;;;;;28.88;19.30;;;22.20;99.90;;;;;;5105962;28;20222;-87
2023/08/19 05:01:36;;;;;;;26.95;17.63;;;22.30;99.90;;;;;;5082964;28;20631;-87
2023/08/19 05:04:04;;;;;;;28.98;19.05;;;22.30;99.90;;;;;;5081237;28;20635;-87
2023/08/19 05:06:30;;;;;;;30.33;20.42;;;22.30;99.90;;;;;;5102075;28;20224;-84
2023/08/19 05:08:57;;;;;;;26.48;18.35;;;22.40;99.90;;;;;;5092926;28;20216;-86
2023/08/19 05:11:24;;;;;;;27.80;18.63;;;22.30;99.90;;;;;;5101866;28;20314;-87
2023/08/19 05:13:51;;;;;;;27.92;18.75;;;22.40;99.90;;;;;;5110976;28;20203;-87
2023/08/19 05:16:18;;;;;;;26.75;18.73;;;22.40;99.90;;;;;;5075338;28;20223;-86
2023/08/19 05:18:45;;;;;;;28.60;18.63;;;22.40;99.90;;;;;;5075500;28;20302;-86
2023/08/19 05:21:11;;;;;;;30.38;19.27;;;22.40;99.90;;;;;;5109743;28;20215;-85
2023/08/19 05:23:38;;;;;;;29.00;19.02;;;22.40;99.90;;;;;;5097758;28;20656;-86
2023/08/19 05:26:06;;;;;;;27.65;17.45;;;22.50;99.90;;;;;;5075269;28;20231;-85
2023/08/19 05:28:33;;;;;;;29.23;19.33;;;22.50;99.90;;;;;;5074826;28;20291;-89
2023/08/19 05:30:59;;;;;;;27.88;18.30;;;22.50;99.90;;;;;;5077357;28;20220;-86
2023/08/19 05:33:26;;;;;;;28.75;18.33;;;22.50;99.90;;;;;;5111555;28;20282;-85
2023/08/19 05:35:53;;;;;;;25.90;18.25;;;22.60;99.90;;;;;;5095076;28;20206;-85
2023/08/19 05:38:20;;;;;;;25.65;18.15;;;22.60;99.90;;;;;;5099119;28;20208;-85
2023/08/19 05:40:47;;;;;;;27.23;18.40;;;22.70;99.90;;;;;;5103469;28;20533;-87
2023/08/19 05:43:14;;;;;;;28.35;18.83;;;22.80;99.90;;;;;;5094778;28;20200;-87
2023/08/19 05:45:41;;;;;;;25.90;17.92;;;22.80;99.90;;;;;;5092546;28;20276;-87
2023/08/19 05:48:07;;;;;;;26.35;17.55;;;22.90;99.90;;;;;;5087459;28;20204;-86
2023/08/19 05:50:36;;;;;;;27.10;17.83;;;23.00;99.90;;;;;;5111409;28;20267;-86
2023/08/19 05:53:03;;;;;;;25.25;17.77;;;23.00;99.90;;;;;;5112933;28;20565;-87
2023/08/19 05:55:31;;;;;;;24.52;17.27;;;23.00;99.90;;;;;;5094755;28;20256;-86
2023/08/19 05:57:58;;;;;;;24.58;17.08;;;23.00;99.90;;;;;;5112705;28;20582;-87
2023/08/19 06:00:24;;;;;;;26.17;17.23;;;23.10;99.90;;;;;;5094397;28;20284;-86
2023/08/19 06:02:51;;;;;;;25.77;16.55;;;23.10;99.90;;;;;;5094267;28;20629;-88
2023/08/19 06:05:18;;;;;;;23.77;16.48;;;23.00;99.90;;;;;;5112460;28;20214;-85
2023/08/19 06:07:45;;;;;;;23.25;15.77;;;23.10;99.90;;;;;;5094320;28;20203;-87
2023/08/19 06:10:12;;;;;;;20.00;15.55;;;23.10;99.90;;;;;;5112626;28;20560;-85
2023/08/19 06:12:39;;;;;;;23.20;15.70;;;23.10;99.90;;;;;;5112426;28;20661;-87
2023/08/19 06:15:06;;;;;;;23.13;15.25;;;23.10;99.90;;;;;;5094259;28;20249;-87
2023/08/19 06:17:33;;;;;;;23.20;15.70;;;23.20;99.90;;;;;;5093857;28;20264;-87
2023/08/19 06:20:00;;;;;;;18.95;13.82;;;23.20;99.90;;;;;;5112059;28;20207;-86
2023/08/19 06:22:27;;;;;;;20.33;14.73;;;23.20;99.90;;;;;;5094353;28;20203;-86
2023/08/19 06:24:54;;;;;;;19.13;13.85;;;23.30;99.90;;;;;;5077260;28;20268;-87
2023/08/19 06:27:20;;;;;;;20.27;14.77;;;23.30;99.90;;;;;;5112054;28;20589;-86
2023/08/19 06:29:47;;;;;;;17.20;13.15;;;23.40;99.90;;;;;;5113360;28;20222;-87
2023/08/19 06:32:14;;;;;;;19.55;13.68;;;23.40;99.90;;;;;;5093521;28;20235;-87
2023/08/19 06:34:42;;;;;;;19.05;13.27;;;23.50;99.90;;;;;;5093916;28;20203;-88
2023/08/19 06:37:12;;;;;;;18.25;12.60;;;23.60;99.90;;;;;;5095192;28;20229;-85
2023/08/19 06:39:43;;;;;;;16.00;11.52;;;23.60;99.90;;;;;;5095670;28;20358;-84
2023/08/19 06:42:10;;;;;;;17.02;11.63;;;23.80;99.90;;;;;;5098309;28;20203;-88
2023/08/19 06:44:39;;;;;;;15.77;11.55;;;23.80;99.90;;;;;;5111915;28;20199;-86
2023/08/19 06:47:09;;;;;;;15.48;11.73;;;23.90;99.90;;;;;;5093457;28;20322;-87
2023/08/19 06:49:36;;;;;;;16.88;11.55;;;24.10;99.90;;;;;;5112435;28;20253;-85
2023/08/19 06:52:04;;;;;;;17.55;11.73;;;24.20;99.90;;;;;;5093278;28;20687;-87
2023/08/19 06:54:31;;;;;;;16.98;12.80;;;24.30;99.90;;;;;;5093235;28;20306;-86
2023/08/19 06:57:09;;;;;;;13.75;10.18;;;24.40;99.90;;;;;;5093238;28;20703;-86
2023/08/19 06:59:40;;;;;;;15.35;10.45;;;24.40;99.90;;;;;;5093243;28;20547;-84
2023/08/19 07:02:08;;;;;;;14.70;9.57;;;24.50;99.90;;;;;;5093174;28;20219;-84
2023/08/19 07:04:35;;;;;;;13.45;9.68;;;24.60;99.90;;;;;;5111111;28;20286;-85
2023/08/19 07:07:04;;;;;;;12.95;9.93;;;24.60;99.90;;;;;;5093570;28;20671;-86
2023/08/19 07:09:33;;;;;;;11.13;9.15;;;24.70;99.90;;;;;;5093465;28;20219;-87
2023/08/19 07:12:01;;;;;;;11.55;9.25;;;24.70;99.90;;;;;;5093889;28;20218;-86
2023/08/19 07:14:29;;;;;;;14.07;9.80;;;24.80;99.90;;;;;;5100618;28;20648;-86
2023/08/19 07:17:00;;;;;;;14.38;9.70;;;24.90;99.90;;;;;;5097685;28;20227;-87
2023/08/19 07:19:36;;;;;;;13.88;9.60;;;24.90;99.90;;;;;;5100925;28;20211;-85
2023/08/19 07:22:05;;;;;;;13.80;9.52;;;24.90;99.90;;;;;;5118714;27;20265;-88
2023/08/19 07:24:34;;;;;;;13.80;9.88;;;24.90;99.90;;;;;;5093870;28;20393;-89
2023/08/19 07:27:05;;;;;;;11.30;9.18;;;24.90;99.90;;;;;;5111835;28;20261;-86
2023/08/19 07:29:32;;;;;;;13.30;9.13;;;25.00;99.90;;;;;;5096499;28;20198;-87
2023/08/19 07:32:03;;;;;;;13.23;9.20;;;25.10;99.90;;;;;;5095252;28;20230;-86
2023/08/19 07:34:33;;;;;;;16.27;9.27;;;25.20;99.90;;;;;;5095766;28;20301;-85
2023/08/19 07:37:00;;;;;;;14.68;10.02;;;25.30;99.90;;;;;;5115246;28;20203;-85
2023/08/19 07:39:32;;;;;;;14.20;9.20;;;25.40;99.90;;;;;;5102919;28;20218;-87
2023/08/19 07:42:03;;;;;;;11.20;8.90;;;25.60;99.90;;;;;;5105903;28;20612;-86
2023/08/19 07:44:30;;;;;;;11.30;8.80;;;25.70;99.90;;;;;;5105604;28;20233;-84
2023/08/19 07:46:59;;;;;;;16.50;9.65;;;25.80;99.90;;;;;;5094948;28;20265;-86
2023/08/19 07:49:26;;;;;;;11.13;8.85;;;25.80;99.90;;;;;;5122137;28;20581;-85
2023/08/19 07:51:54;;;;;;;15.73;8.75;;;26.10;99.90;;;;;;5100063;28;20298;-87
2023/08/19 07:54:22;;;;;;;12.90;9.05;;;26.00;99.90;;;;;;5095744;28;20252;-85
2023/08/19 07:56:57;;;;;;;13.15;8.85;;;26.10;99.90;;;;;;5112910;28;20207;-86
2023/08/19 07:59:25;;;;;;;13.30;9.10;;;26.50;99.90;;;;;;5094112;28;20251;-87
2023/08/19 08:01:54;;;;;;;10.90;8.48;;;26.20;99.90;;;;;;5093893;28;20298;-84
2023/08/19 08:04:22;;;;;;;12.55;8.00;;;26.40;99.90;;;;;;5094621;28;20215;-86
2023/08/19 08:06:50;;;;;;;10.55;8.27;;;26.70;99.90;;;;;;5096606;28;20226;-86
2023/08/19 08:09:17;;;;;;;14.25;8.90;;;27.00;99.90;;;;;;5096672;28;20215;-84
2023/08/19 08:11:45;;;;;;;10.50;8.02;;;27.20;99.90;;;;;;5097931;28;20561;-86
2023/08/19 08:14:12;;;;;;;10.00;7.88;;;27.50;99.90;;;;;;5097799;28;20231;-85
2023/08/19 08:16:40;;;;;;;8.90;7.07;;;27.70;99.90;;;;;;5098105;28;20219;-84
2023/08/19 08:19:08;;;;;;;13.35;7.57;;;27.90;99.90;;;;;;5096926;28;20257;-86
2023/08/19 08:21:35;;;;;;;9.63;7.63;;;28.20;99.90;;;;;;5098512;28;20429;-84
2023/08/19 08:24:03;;;;;;;10.02;7.35;;;28.20;99.90;;;;;;5100018;28;20199;-86
2023/08/19 08:26:31;;;;;;;9.60;7.28;;;28.30;99.90;;;;;;5099873;28;20223;-85
2023/08/19 08:28:58;;;;;;;11.00;7.55;;;28.40;99.90;;;;;;5087288;28;20211;-85
2023/08/19 08:31:31;;;;;;;9.63;6.88;;;28.50;99.90;;;;;;5099849;28;20237;-84
2023/08/19 08:33:58;;;;;;;11.73;7.50;;;28.60;99.90;;;;;;5115723;28;20215;-85
2023/08/19 08:36:25;;;;;;;9.60;6.53;;;28.70;99.90;;;;;;5097413;28;20214;-85
2023/08/19 08:38:52;;;;;;;9.23;6.40;;;28.80;99.90;;;;;;5098674;28;20212;-84
2023/08/19 08:41:20;;;;;;;10.20;6.47;;;28.80;99.90;;;;;;5094988;28;20430;-86
2023/08/19 08:43:49;;;;;;;11.25;6.80;;;28.90;99.90;;;;;;5112760;28;20207;-87
2023/08/19 08:46:19;;;;;;;8.07;6.55;;;29.00;99.90;;;;;;5094315;28;20332;-85
2023/08/19 08:48:47;;;;;;;8.13;5.85;;;29.30;99.90;;;;;;5093450;28;20679;-88
2023/08/19 08:51:15;;;;;;;11.50;6.80;;;29.70;99.90;;;;;;5093890;28;20631;-88
2023/08/19 08:53:43;;;;;;;9.63;6.53;;;30.00;99.90;;;;;;5093377;28;20218;-87
2023/08/19 08:56:11;;;;;;;9.50;6.55;;;30.20;99.90;;;;;;5093420;28;20652;-88
2023/08/19 08:58:38;;;;;;;8.52;6.70;;;30.40;99.90;;;;;;5094920;28;20199;-86
2023/08/19 09:01:07;;;;;;;9.43;6.35;;;30.50;99.90;;;;;;5095098;28;20217;-85
2023/08/19 09:03:36;;;;;;;6.55;5.65;;;30.50;99.90;;;;;;5112983;28;20644;-86
2023/08/19 09:06:16;;;;;;;10.10;6.50;;;30.50;99.90;;;;;;5095990;28;20203;-85
2023/08/19 09:08:51;;;;;;;8.43;6.10;;;30.40;99.90;;;;;;5109123;28;20194;-88
2023/08/19 09:11:25;;;;;;;9.82;6.15;;;30.40;99.90;;;;;;5101497;28;20210;-87
2023/08/19 09:14:07;;;;;;;8.25;6.00;;;30.40;99.90;;;;;;5094346;28;20215;-87
2023/08/19 09:16:38;;;;;;;9.57;6.72;;;30.40;99.90;;;;;;5098121;28;20238;-87
2023/08/19 09:19:05;;;;;;;8.30;6.07;;;30.40;99.90;;;;;;5097373;28;20214;-86
2023/08/19 09:21:32;;;;;;;9.25;6.00;;;30.40;99.90;;;;;;5098919;28;20203;-87
2023/08/19 09:23:59;;;;;;;7.55;6.10;;;30.10;99.90;;;;;;5099839;28;20218;-87
2023/08/19 09:26:30;;;;;;;8.13;6.45;;;30.20;99.90;;;;;;5118485;28;20287;-86
2023/08/19 09:28:57;;;;;;;7.95;6.75;;;30.40;99.90;;;;;;5096239;28;20262;-86
2023/08/19 09:31:25;;;;;;;7.03;6.22;;;29.90;99.90;;;;;;5095698;28;20215;-85
2023/08/19 09:34:01;;;;;;;7.60;6.57;;;29.90;99.90;;;;;;5096506;28;20602;-85
2023/08/19 09:36:33;;;;;;;8.82;6.63;;;29.90;99.90;;;;;;5113965;28;20203;-84
2023/08/19 09:39:00;;;;;;;7.72;6.72;;;29.70;99.90;;;;;;5084034;28;20234;-84
2023/08/19 09:41:28;;;;;;;8.55;7.32;;;29.50;99.90;;;;;;5096802;28;20203;-84
2023/08/19 09:43:56;;;;;;;9.93;7.68;;;29.30;99.90;;;;;;5094813;28;20206;-84
2023/08/19 09:46:31;;;;;;;11.38;8.55;;;29.20;99.90;;;;;;5112454;28;20230;-85
2023/08/19 09:48:59;;;;;;;10.38;6.82;;;29.00;99.90;;;;;;5094881;28;20238;-85
2023/08/19 09:51:28;;;;;;;11.35;7.53;;;29.00;99.90;;;;;;5094929;28;20272;-85
2023/08/19 09:53:56;;;;;;;11.82;7.40;;;28.90;99.90;;;;;;5094791;28;20321;-84
2023/08/19 09:56:26;;;;;;;12.77;8.65;;;28.90;99.90;;;;;;5094475;28;20207;-85
2023/08/19 09:58:54;;;;;;;12.57;8.63;;;28.80;99.90;;;;;;5094577;28;20203;-86
2023/08/19 10:01:22;;;;;;;12.50;9.20;;;28.90;99.90;;;;;;5094426;28;20695;-85
2023/08/19 10:03:50;;;;;;;11.88;8.98;;;28.60;99.90;;;;;;5112597;28;20308;-86
2023/08/19 10:06:26;;;;;;;15.02;9.00;;;28.70;99.90;;;;;;5094473;28;20203;-85
2023/08/19 10:09:05;;;;;;;12.55;8.63;;;28.40;99.90;;;;;;5094439;28;20202;-85
2023/08/19 10:11:33;;;;;;;12.02;9.02;;;28.50;99.90;;;;;;5094408;28;20206;-86
2023/08/19 10:14:03;;;;;;;10.80;8.45;;;28.50;99.90;;;;;;5112233;28;20207;-87
2023/08/19 10:16:38;;;;;;;11.27;8.57;;;28.70;99.90;;;;;;5112407;28;20682;-84
2023/08/19 10:19:08;;;;;;;12.95;8.57;;;28.90;99.90;;;;;;5094363;28;20211;-84
2023/08/19 10:21:40;;;;;;;13.45;9.15;;;29.10;99.90;;;;;;5095774;28;20200;-86
2023/08/19 10:24:12;;;;;;;11.05;8.68;;;29.40;99.90;;;;;;5096360;28;20207;-86
2023/08/19 10:26:39;;;;;;;12.32;9.48;;;29.50;99.90;;;;;;5095131;28;20222;-87
2023/08/19 10:29:14;;;;;;;12.85;9.00;;;29.50;99.90;;;;;;5097244;28;20229;-86
2023/08/19 10:31:44;;;;;;;10.65;8.27;;;29.50;99.90;;;;;;5114972;28;20230;-86
2023/08/19 10:34:25;;;;;;;13.30;9.88;;;29.50;99.90;;;;;;5115207;28;20215;-86
2023/08/19 10:37:12;;;;;;;13.57;9.25;;;29.60;99.90;;;;;;5096393;28;20217;-86
2023/08/19 10:39:49;;;;;;;13.68;10.02;;;29.80;99.90;;;;;;5088862;28;20208;-89
2023/08/19 10:42:17;;;;;;;11.30;9.23;;;29.80;99.90;;;;;;5096401;28;20286;-85
2023/08/19 10:45:05;;;;;;;12.15;8.63;;;29.90;99.90;;;;;;5097844;28;20203;-86
2023/08/19 10:47:43;;;;;;;12.05;9.45;;;30.10;99.90;;;;;;5096361;28;20262;-86
2023/08/19 10:50:40;;;;;;;15.30;10.20;;;30.70;99.90;;;;;;5096807;28;20266;-86
2023/08/19 10:53:32;;;;;;;;;;;;;;;;;;;;;
2023/08/19 10:56:11;;;;;;;12.68;9.75;;;30.70;99.90;;;;;;5115187;28;20269;-86
2023/08/19 10:58:53;;;;;;;13.05;10.18;;;30.80;99.90;;;;;;5116176;28;20203;-85
2023/08/19 11:01:45;;;;;;;13.80;9.68;;;31.00;99.90;;;;;;5102382;28;20222;-85
2023/08/19 11:04:20;;;;;;;13.18;10.00;;;31.10;99.90;;;;;;5094296;28;20294;-84
2023/08/19 11:06:55;;;;;;;14.80;12.10;;;31.40;99.90;;;;;;5096259;28;20699;-84
2023/08/19 11:09:33;;;;;;;17.77;12.75;;;31.90;99.90;;;;;;5100703;28;20303;-82
2023/08/19 11:12:08;;;;;;;16.52;11.90;;;31.80;99.90;;;;;;5099401;28;20276;-83
2023/08/19 11:14:50;;;;;;;17.50;12.40;;;31.90;99.90;;;;;;5091660;28;20202;-86
2023/08/19 11:17:27;;;;;;;15.27;12.75;;;31.90;99.90;;;;;;5114577;28;20219;-85
2023/08/19 11:19:55;;;;;;;14.48;11.68;;;32.10;99.90;;;;;;5096180;28;20234;-84
2023/08/19 11:22:25;;;;;;;16.67;13.98;;;31.90;99.90;;;;;;5097840;28;20205;-83
2023/08/19 11:24:52;;;;;;;16.08;13.27;;;32.10;99.90;;;;;;5111848;28;20286;-84
2023/08/19 11:27:20;;;;;;;18.95;14.45;;;31.30;99.90;;;;;;5093598;28;20417;-85
2023/08/19 11:29:48;;;;;;;18.15;14.63;;;31.60;99.90;;;;;;5093558;28;20606;-83
2023/08/19 11:32:29;;;;;;;16.42;14.27;;;31.50;99.90;;;;;;5093377;28;20222;-85
2023/08/19 11:34:56;;;;;;;20.30;16.30;;;31.40;99.90;;;;;;5093456;28;20229;-83
2023/08/19 11:37:23;;;;;;;20.58;15.13;;;31.10;99.90;;;;;;5103236;28;20203;-85
2023/08/19 11:39:50;;;;;;;18.45;16.48;;;31.10;99.90;;;;;;5112746;28;20203;-84
2023/08/19 11:42:17;;;;;;;21.42;17.42;;;31.10;99.90;;;;;;5092169;28;20219;-83
2023/08/19 11:44:51;;;;;;;25.52;17.45;;;30.90;99.90;;;;;;5098004;28;20572;-84
2023/08/19 11:47:25;;;;;;;20.50;17.40;;;30.50;99.90;;;;;;5097113;28;20237;-86
2023/08/19 11:49:57;;;;;;;19.35;15.52;;;30.20;99.90;;;;;;5085748;28;20707;-85
2023/08/19 11:52:29;;;;;;;20.50;14.82;;;30.40;99.90;;;;;;5071400;28;20644;-84
2023/08/19 11:55:03;;;;;;;20.85;14.80;;;29.90;99.90;;;;;;5079272;28;20456;-84
2023/08/19 11:57:36;;;;;;;17.58;13.30;;;29.80;99.90;;;;;;5083645;28;20674;-87
2023/08/19 12:00:15;;;;;;;15.63;10.18;;;29.70;99.90;;;;;;5075709;28;20206;-84
2023/08/19 12:02:47;;;;;;;10.07;7.85;;;29.60;99.90;;;;;;5082107;28;21311;-86
2023/08/19 12:05:26;;;;;;;8.15;5.68;;;29.60;99.90;;;;;;5075699;28;20234;-85
2023/08/19 12:07:53;;;;;;;7.13;5.70;;;29.60;99.90;;;;;;5081977;28;20257;-86
2023/08/19 12:10:20;;;;;;;7.07;5.63;;;29.50;99.90;;;;;;5074879;28;20224;-84
2023/08/19 12:12:58;;;;;;;8.07;5.82;;;29.40;99.90;;;;;;5077909;28;20236;-85
2023/08/19 12:15:25;;;;;;;8.10;5.72;;;29.30;99.90;;;;;;5076013;28;21014;-86
2023/08/19 12:17:52;;;;;;;8.02;5.97;;;29.30;99.90;;;;;;5073587;28;20583;-84
2023/08/19 12:20:19;;;;;;;9.57;6.38;;;29.20;99.90;;;;;;5100854;28;20211;-85
2023/08/19 12:22:46;;;;;;;9.35;6.32;;;29.10;99.90;;;;;;5080581;28;20551;-86
2023/08/19 12:25:14;;;;;;;8.55;6.10;;;29.00;99.90;;;;;;5077586;28;20199;-84
2023/08/19 12:27:41;;;;;;;10.70;7.28;;;29.00;99.90;;;;;;5071934;28;20232;-85
2023/08/19 12:30:08;;;;;;;7.57;6.13;;;29.00;99.90;;;;;;5072508;28;20683;-83
2023/08/19 12:32:35;;;;;;;9.18;6.53;;;29.00;99.90;;;;;;5072586;28;20253;-85
2023/08/19 12:35:04;;;;;;;9.57;6.28;;;29.20;99.90;;;;;;5078829;28;20543;-84
2023/08/19 12:37:32;;;;;;;9.13;6.28;;;29.10;99.90;;;;;;5087606;28;20208;-85
2023/08/19 12:39:58;;;;;;;8.75;6.30;;;29.10;99.90;;;;;;5072284;28;20235;-83
2023/08/19 12:42:25;;;;;;;9.02;5.50;;;29.00;99.90;;;;;;5072544;28;20203;-83
2023/08/19 12:45:12;;;;;;;7.80;5.07;;;28.90;99.90;;;;;;5089654;28;20616;-84